createdAt,value
2023-04-05T00:00:38.283Z,4.57
2023-04-05T00:03:06.010Z,3.00
2023-04-05T00:05:34.516Z,4.25
2023-04-05T00:08:02.539Z,3.15
2023-04-05T00:10:31.271Z,3.13
2023-04-05T00:12:58.996Z,3.38
2023-04-05T00:15:27.355Z,2.67
2023-04-05T00:17:55.002Z,3.85
2023-04-05T00:20:22.021Z,3.70
2023-04-05T00:22:50.905Z,3.95
2023-04-05T00:25:18.501Z,3.08
2023-04-05T00:27:45.923Z,3.30
2023-04-05T00:30:13.445Z,3.45
2023-04-05T00:32:40.393Z,3.80
2023-04-05T00:35:07.870Z,3.53
2023-04-05T00:37:34.849Z,3.85
2023-04-05T00:40:01.901Z,3.97
2023-04-05T00:42:28.930Z,3.42
2023-04-05T00:44:56.179Z,4.55
2023-04-05T00:47:23.563Z,3.08
2023-04-05T00:49:50.964Z,3.70
2023-04-05T00:52:19.693Z,3.35
2023-04-05T00:54:46.856Z,4.45
2023-04-05T00:57:15.096Z,4.53
2023-04-05T00:59:43.289Z,4.18
2023-04-05T01:02:32.449Z,4.90
2023-04-05T01:05:03.938Z,2.80
2023-04-05T01:07:46.472Z,3.20
2023-04-05T01:10:17.410Z,3.92
2023-04-05T01:12:45.048Z,3.10
2023-04-05T01:15:12.861Z,3.75
2023-04-05T01:17:42.154Z,5.30
2023-04-05T01:20:11.906Z,3.72
2023-04-05T01:23:01.037Z,3.15
2023-04-05T01:25:59.862Z,3.78
2023-04-05T01:28:57.685Z,3.28
2023-04-05T01:31:50.420Z,3.42
2023-04-05T01:34:45.595Z,5.43
2023-04-05T01:37:16.390Z,3.38
2023-04-05T01:39:43.536Z,3.90
2023-04-05T01:42:10.728Z,5.22
2023-04-05T01:44:37.635Z,4.25
2023-04-05T01:47:04.860Z,3.45
2023-04-05T01:49:31.777Z,3.25
2023-04-05T01:51:58.809Z,4.05
2023-04-05T01:54:27.800Z,3.55
2023-04-05T01:56:54.810Z,4.10
2023-04-05T01:59:21.938Z,3.42
2023-04-05T02:01:49.138Z,3.70
2023-04-05T02:04:15.995Z,3.47
2023-04-05T02:06:42.967Z,3.92
2023-04-05T02:09:10.003Z,3.42
2023-04-05T02:11:37.223Z,3.83
2023-04-05T02:14:04.291Z,4.10
2023-04-05T02:16:33.377Z,5.50
2023-04-05T02:19:00.541Z,3.08
2023-04-05T02:21:27.655Z,3.13
2023-04-05T02:23:54.720Z,3.05
2023-04-05T02:26:22.010Z,3.90
2023-04-05T02:28:48.948Z,4.10
2023-04-05T02:31:16.318Z,3.92
2023-04-05T02:33:43.321Z,3.53
2023-04-05T02:36:13.282Z,4.22
2023-04-05T02:38:41.009Z,4.05
2023-04-05T02:41:14.090Z,3.75
2023-04-05T02:43:41.147Z,4.28
2023-04-05T02:46:08.244Z,3.40
2023-04-05T02:48:40.133Z,3.03
2023-04-05T02:51:08.316Z,3.70
2023-04-05T02:53:35.612Z,3.22
2023-04-05T02:56:07.943Z,4.20
2023-04-05T02:58:41.096Z,3.70
2023-04-05T03:01:09.666Z,4.25
2023-04-05T03:03:37.493Z,4.18
2023-04-05T03:06:10.376Z,4.40
2023-04-05T03:08:49.221Z,3.55
2023-04-05T03:11:21.208Z,4.35
2023-04-05T03:13:52.298Z,4.13
2023-04-05T03:16:31.784Z,4.03
2023-04-05T03:19:05.498Z,4.78
2023-04-05T03:21:35.493Z,3.05
2023-04-05T03:24:10.133Z,4.57
2023-04-05T03:26:41.039Z,4.07
2023-04-05T03:29:09.548Z,3.40
2023-04-05T03:31:38.875Z,4.97
2023-04-05T03:34:09.101Z,3.78
2023-04-05T03:36:48.181Z,4.55
2023-04-05T03:39:26.549Z,4.70
2023-04-05T03:41:56.830Z,4.93
2023-04-05T03:44:23.836Z,4.10
2023-04-05T03:46:50.885Z,4.45
2023-04-05T03:49:17.883Z,4.47
2023-04-05T03:51:44.819Z,3.90
2023-04-05T03:54:12.536Z,5.40
2023-04-05T03:56:39.738Z,4.10
2023-04-05T03:59:14.144Z,4.28
2023-04-05T04:01:41.221Z,5.00
2023-04-05T04:04:08.794Z,5.57
2023-04-05T04:06:37.925Z,4.72
2023-04-05T04:09:05.951Z,4.93
2023-04-05T04:11:33.283Z,4.43
2023-04-05T04:14:03.665Z,4.25
2023-04-05T04:16:46.370Z,5.00
2023-04-05T04:19:22.569Z,5.10
2023-04-05T04:22:10.182Z,5.15
2023-04-05T04:25:04.751Z,4.27
2023-04-05T04:27:59.041Z,5.63
2023-04-05T04:30:49.091Z,4.00
2023-04-05T04:33:34.709Z,6.47
2023-04-05T04:36:18.274Z,6.00
2023-04-05T04:39:18.339Z,5.75
2023-04-05T04:41:56.496Z,6.85
2023-04-05T04:44:46.970Z,5.10
2023-04-05T04:47:22.898Z,6.03
2023-04-05T04:50:16.626Z,4.93
2023-04-05T04:52:43.577Z,5.22
2023-04-05T04:55:14.323Z,4.97
2023-04-05T04:57:42.557Z,6.13
2023-04-05T05:00:13.760Z,5.47
2023-04-05T05:02:42.535Z,4.70
2023-04-05T05:05:11.210Z,6.25
2023-04-05T05:07:41.772Z,5.28
2023-04-05T05:10:13.440Z,5.63
2023-04-05T05:12:40.687Z,4.95
2023-04-05T05:15:10.888Z,5.43
2023-04-05T05:17:39.381Z,6.38
2023-04-05T05:20:10.870Z,6.30
2023-04-05T05:22:38.797Z,5.13
2023-04-05T05:25:07.056Z,6.10
2023-04-05T05:27:34.126Z,7.43
2023-04-05T05:30:01.316Z,4.55
2023-04-05T05:32:28.418Z,6.25
2023-04-05T05:34:55.509Z,5.57
2023-04-05T05:37:33.030Z,6.57
2023-04-05T05:40:00.626Z,6.05
2023-04-05T05:42:27.783Z,4.93
2023-04-05T05:44:54.824Z,5.88
2023-04-05T05:47:21.923Z,5.32
2023-04-05T05:49:49.893Z,6.45
2023-04-05T05:52:16.967Z,5.22
2023-04-05T05:54:43.943Z,5.10
2023-04-05T05:57:10.963Z,4.18
2023-04-05T05:59:37.942Z,5.25
2023-04-05T06:02:05.490Z,5.68
2023-04-05T06:04:32.502Z,4.68
2023-04-05T06:06:59.399Z,4.22
2023-04-05T06:09:27.107Z,5.57
2023-04-05T06:11:56.856Z,4.15
2023-04-05T06:14:25.108Z,5.53
2023-04-05T06:16:52.310Z,5.03
2023-04-05T06:19:19.331Z,4.78
2023-04-05T06:21:46.322Z,4.85
2023-04-05T06:24:13.418Z,4.22
2023-04-05T06:26:41.805Z,4.32
2023-04-05T06:29:09.678Z,4.40
2023-04-05T06:31:38.250Z,4.70
2023-04-05T06:34:05.689Z,4.53
2023-04-05T06:36:34.388Z,5.72
2023-04-05T06:39:03.233Z,4.80
2023-04-05T06:41:30.736Z,4.45
2023-04-05T06:43:57.720Z,5.95
2023-04-05T06:46:24.978Z,4.68
2023-04-05T06:48:52.814Z,4.97
2023-04-05T06:51:20.940Z,4.65
2023-04-05T06:53:48.100Z,5.07
2023-04-05T06:56:14.985Z,4.07
2023-04-05T06:58:41.985Z,3.95
2023-04-05T07:01:09.092Z,4.95
2023-04-05T07:03:36.268Z,5.07
2023-04-05T07:06:04.332Z,4.57
2023-04-05T07:08:33.219Z,5.60
2023-04-05T07:11:00.855Z,4.18
2023-04-05T07:13:28.338Z,3.63
2023-04-05T07:16:02.831Z,4.00
2023-04-05T07:18:30.799Z,3.58
2023-04-05T07:21:03.904Z,5.45
2023-04-05T07:23:31.436Z,6.53
2023-04-05T07:26:05.611Z,3.75
2023-04-05T07:28:33.943Z,5.05
2023-04-05T07:31:01.644Z,4.18
2023-04-05T07:33:28.879Z,3.53
2023-04-05T07:35:57.247Z,4.65
2023-04-05T07:38:24.710Z,4.20
2023-04-05T07:40:52.122Z,4.50
2023-04-05T07:43:19.550Z,4.72
2023-04-05T07:45:46.667Z,3.53
2023-04-05T07:48:13.669Z,4.30
2023-04-05T07:50:41.385Z,3.47
2023-04-05T07:53:08.690Z,4.65
2023-04-05T07:55:38.855Z,3.33
2023-04-05T07:58:06.002Z,3.55
2023-04-05T08:00:32.944Z,4.40
2023-04-05T08:03:02.201Z,4.63
2023-04-05T08:05:29.753Z,4.13
2023-04-05T08:07:58.712Z,3.92
2023-04-05T08:10:26.205Z,2.88
2023-04-05T08:12:53.828Z,3.20
2023-04-05T08:15:21.358Z,3.05
2023-04-05T08:17:48.335Z,3.05
2023-04-05T08:20:15.772Z,3.00
2023-04-05T08:22:43.034Z,3.70
2023-04-05T08:25:10.543Z,3.20
2023-04-05T08:27:37.654Z,2.72
2023-04-05T08:30:06.064Z,3.30
2023-04-05T08:32:33.615Z,3.00
2023-04-05T08:35:00.646Z,2.80
2023-04-05T08:37:28.257Z,3.15
2023-04-05T08:39:55.286Z,3.25
2023-04-05T08:42:29.707Z,2.65
2023-04-05T08:44:58.027Z,3.35
2023-04-05T08:47:26.032Z,2.30
2023-04-05T08:49:53.056Z,2.97
2023-04-05T08:52:20.419Z,2.10
2023-04-05T08:54:49.035Z,2.00
2023-04-05T08:57:19.435Z,3.45
2023-04-05T08:59:46.858Z,2.25
2023-04-05T09:02:19.574Z,2.45
2023-04-05T09:04:49.570Z,2.42
2023-04-05T09:07:17.613Z,2.30
2023-04-05T09:09:48.660Z,2.83
2023-04-05T09:12:15.943Z,2.65
2023-04-05T09:14:45.156Z,2.97
2023-04-05T09:17:12.730Z,2.10
2023-04-05T09:19:39.786Z,1.90
2023-04-05T09:22:08.650Z,1.73
2023-04-05T09:24:43.495Z,1.88
2023-04-05T09:27:15.972Z,1.70
2023-04-05T09:29:47.092Z,1.63
2023-04-05T09:32:15.750Z,1.90
2023-04-05T09:34:43.637Z,1.70
2023-04-05T09:37:20.274Z,2.22
2023-04-05T09:39:52.349Z,2.40
2023-04-05T09:42:23.202Z,1.92
2023-04-05T09:44:51.596Z,1.88
2023-04-05T09:47:21.123Z,1.80
2023-04-05T09:49:52.736Z,1.65
2023-04-05T09:52:25.401Z,2.03
2023-04-05T09:54:56.659Z,2.08
2023-04-05T09:57:27.984Z,2.63
2023-04-05T09:59:55.359Z,2.17
2023-04-05T10:02:22.856Z,2.05
2023-04-05T10:04:50.842Z,2.25
2023-04-05T10:07:19.553Z,2.95
2023-04-05T10:09:49.194Z,2.22
2023-04-05T10:12:27.099Z,2.15
2023-04-05T10:14:57.559Z,2.75
2023-04-05T10:17:26.155Z,2.58
2023-04-05T10:20:18.020Z,2.03
2023-04-05T10:22:57.637Z,2.50
2023-04-05T10:25:30.778Z,1.70
2023-04-05T10:28:04.848Z,2.88
2023-04-05T10:30:37.793Z,2.05
2023-04-05T10:33:31.682Z,2.05
2023-04-05T10:36:13.356Z,2.17
2023-04-05T10:39:04.677Z,2.00
2023-04-05T10:41:36.974Z,2.30
2023-04-05T10:44:12.070Z,2.00
2023-04-05T10:46:48.101Z,2.42
2023-04-05T10:49:29.467Z,2.30
2023-04-05T10:51:57.439Z,1.98
2023-04-05T10:54:25.336Z,2.40
2023-04-05T10:56:56.598Z,2.03
2023-04-05T10:59:24.422Z,3.08
2023-04-05T11:01:53.471Z,2.97
2023-04-05T11:04:20.961Z,2.22
2023-04-05T11:06:48.378Z,1.88
2023-04-05T11:09:20.944Z,2.60
2023-04-05T11:11:50.155Z,2.17
2023-04-05T11:14:37.460Z,2.58
2023-04-05T11:17:05.028Z,2.30
2023-04-05T11:20:04.093Z,2.05
2023-04-05T11:22:33.338Z,2.08
2023-04-05T11:25:05.405Z,2.20
2023-04-05T11:27:34.606Z,2.15
2023-04-05T11:30:04.759Z,2.20
2023-04-05T11:32:44.538Z,1.95
2023-04-05T11:35:25.732Z,2.25
2023-04-05T11:38:04.041Z,3.08
2023-04-05T11:40:43.931Z,2.00
2023-04-05T11:43:12.982Z,2.35
2023-04-05T11:45:45.002Z,2.17
2023-04-05T11:48:15.429Z,1.90
2023-04-05T11:53:14.978Z,2.45
2023-04-05T11:55:53.034Z,2.33
2023-04-05T11:58:23.247Z,2.33
2023-04-05T12:01:02.092Z,2.30
2023-04-05T12:03:33.119Z,2.53
2023-04-05T12:06:05.046Z,2.17
2023-04-05T12:08:55.781Z,2.50
2023-04-05T12:11:32.044Z,2.00
2023-04-05T12:14:01.418Z,1.90
2023-04-05T12:16:31.754Z,2.35
2023-04-05T12:19:02.276Z,2.85
2023-04-05T12:21:29.568Z,2.38
2023-04-05T12:23:58.410Z,2.45
2023-04-05T12:26:31.757Z,2.53
2023-04-05T12:29:05.502Z,2.15
2023-04-05T12:31:45.190Z,2.45
2023-04-05T12:34:14.005Z,1.92
2023-04-05T12:36:48.595Z,2.28
2023-04-05T12:39:17.973Z,2.63
2023-04-05T12:41:46.066Z,2.50
2023-04-05T12:44:19.945Z,2.63
2023-04-05T12:46:48.489Z,2.45
2023-04-05T12:49:19.164Z,2.17
2023-04-05T12:51:48.304Z,1.90
2023-04-05T12:54:24.613Z,2.40
2023-04-05T12:56:53.399Z,2.53
2023-04-05T12:59:24.099Z,2.10
2023-04-05T13:01:51.613Z,2.10
2023-04-05T13:04:19.249Z,2.88
2023-04-05T13:06:49.680Z,2.17
2023-04-05T13:09:17.678Z,2.63
2023-04-05T13:11:47.806Z,1.92
2023-04-05T13:14:14.968Z,2.58
2023-04-05T13:16:42.358Z,2.00
2023-04-05T13:19:10.382Z,2.22
2023-04-05T13:21:37.429Z,2.88
2023-04-05T13:24:04.776Z,2.25
2023-04-05T13:26:31.925Z,1.90
2023-04-05T13:29:00.158Z,2.40
2023-04-05T13:31:27.594Z,3.10
2023-04-05T13:33:54.899Z,2.08
2023-04-05T13:36:21.969Z,3.00
2023-04-05T13:38:54.642Z,2.63
2023-04-05T13:41:21.974Z,2.30
2023-04-05T13:43:49.421Z,2.28
2023-04-05T13:46:17.044Z,2.70
2023-04-05T13:48:45.644Z,2.35
2023-04-05T13:51:15.795Z,3.00
2023-04-05T13:53:42.803Z,2.80
2023-04-05T13:56:12.147Z,3.00
2023-04-05T13:58:40.537Z,2.10
2023-04-05T14:01:07.523Z,2.55
2023-04-05T14:03:34.870Z,2.65
2023-04-05T14:06:02.105Z,3.17
2023-04-05T14:08:29.346Z,3.58
2023-04-05T14:11:01.002Z,2.40
2023-04-05T14:13:28.084Z,2.78
2023-04-05T14:15:55.155Z,2.80
2023-04-05T14:18:22.281Z,2.65
2023-04-05T14:20:49.527Z,2.47
2023-04-05T14:23:16.492Z,3.40
2023-04-05T14:25:43.499Z,2.45
2023-04-05T14:28:13.219Z,2.63
2023-04-05T14:30:40.701Z,3.90
2023-04-05T14:33:08.077Z,2.97
2023-04-05T14:35:35.514Z,2.45
2023-04-05T14:38:03.765Z,2.78
2023-04-05T14:40:30.925Z,3.40
2023-04-05T14:42:58.277Z,2.63
2023-04-05T14:45:28.728Z,3.35
2023-04-05T14:47:56.082Z,2.90
2023-04-05T14:50:23.232Z,2.90
2023-04-05T14:52:50.321Z,2.92
2023-04-05T14:55:17.389Z,2.90
2023-04-05T14:57:44.945Z,2.80
2023-04-05T15:00:12.870Z,2.80
2023-04-05T15:02:40.271Z,2.70
2023-04-05T15:05:07.923Z,2.50
2023-04-05T15:07:34.929Z,2.35
2023-04-05T15:10:02.155Z,2.85
2023-04-05T15:12:29.752Z,2.85
2023-04-05T15:15:00.484Z,2.78
2023-04-05T15:17:29.349Z,2.60
2023-04-05T15:19:56.364Z,2.65
2023-04-05T15:22:23.821Z,3.10
2023-04-05T15:24:50.878Z,2.80
2023-04-05T15:27:18.952Z,3.25
2023-04-05T15:29:46.291Z,2.72
2023-04-05T15:32:13.415Z,3.03
2023-04-05T15:34:41.314Z,2.95
2023-04-05T15:37:08.365Z,3.22
2023-04-05T15:39:35.505Z,3.83
2023-04-05T15:42:03.241Z,3.38
2023-04-05T15:44:30.941Z,3.20
2023-04-05T15:46:57.981Z,3.67
2023-04-05T15:49:25.040Z,2.92
2023-04-05T15:51:52.078Z,2.70
2023-04-05T15:54:20.873Z,3.25
2023-04-05T15:56:48.347Z,3.42
2023-04-05T15:59:15.518Z,2.75
2023-04-05T16:01:43.557Z,2.65
2023-04-05T16:04:11.098Z,3.42
2023-04-05T16:06:38.204Z,3.10
2023-04-05T16:09:05.395Z,3.70
2023-04-05T16:11:32.452Z,3.58
2023-04-05T16:13:59.829Z,3.60
2023-04-05T16:16:41.730Z,3.72
2023-04-05T16:19:15.173Z,2.95
2023-04-05T16:21:44.037Z,3.03
2023-04-05T16:24:11.279Z,4.05
2023-04-05T16:26:38.286Z,3.28
2023-04-05T16:29:05.371Z,3.60
2023-04-05T16:31:32.884Z,3.22
2023-04-05T16:34:01.325Z,3.78
2023-04-05T16:36:28.674Z,3.90
2023-04-05T16:38:55.723Z,3.28
2023-04-05T16:41:23.132Z,3.22
2023-04-05T16:43:52.154Z,3.33
2023-04-05T16:46:19.377Z,3.58
2023-04-05T16:48:46.984Z,3.08
2023-04-05T16:51:16.420Z,2.90
2023-04-05T16:53:43.939Z,3.58
2023-04-05T16:56:10.948Z,4.22
2023-04-05T16:58:37.980Z,2.97
2023-04-05T17:01:05.039Z,3.50
2023-04-05T17:03:32.127Z,3.70
2023-04-05T17:05:59.334Z,3.13
2023-04-05T17:08:27.338Z,2.92
2023-04-05T17:10:54.257Z,3.90
2023-04-05T17:13:22.037Z,3.47
2023-04-05T17:15:49.331Z,2.55
2023-04-05T17:18:16.648Z,4.07
2023-04-05T17:20:43.618Z,3.78
2023-04-05T17:23:10.712Z,3.60
2023-04-05T17:25:37.783Z,3.83
2023-04-05T17:28:06.990Z,3.40
2023-04-05T17:30:34.058Z,3.33
2023-04-05T17:33:01.376Z,3.33
2023-04-05T17:35:29.416Z,4.18
2023-04-05T17:37:57.397Z,4.03
2023-04-05T17:40:24.518Z,3.30
2023-04-05T17:42:51.621Z,4.55
2023-04-05T17:45:19.079Z,4.00
2023-04-05T17:47:46.581Z,3.58
2023-04-05T17:50:15.500Z,3.92
2023-04-05T17:52:43.291Z,3.92
2023-04-05T17:55:10.522Z,3.95
2023-04-05T17:57:38.127Z,3.95
2023-04-05T18:00:05.899Z,3.95
2023-04-05T18:02:37.996Z,3.85
2023-04-05T18:05:05.463Z,3.78
2023-04-05T18:07:37.029Z,4.88
2023-04-05T18:10:07.990Z,3.90
2023-04-05T18:12:35.156Z,4.73
2023-04-05T18:15:02.239Z,4.28
2023-04-05T18:17:30.521Z,4.32
2023-04-05T18:19:57.729Z,4.43
2023-04-05T18:22:24.873Z,5.28
2023-04-05T18:24:51.962Z,4.78
2023-04-05T18:27:19.114Z,4.40
2023-04-05T18:29:46.838Z,3.40
2023-04-05T18:32:14.380Z,3.60
2023-04-05T18:34:41.796Z,4.97
2023-04-05T18:37:08.795Z,3.63
2023-04-05T18:39:35.877Z,4.68
2023-04-05T18:42:03.234Z,4.70
2023-04-05T18:44:30.696Z,4.15
2023-04-05T18:46:58.785Z,4.32
2023-04-05T18:49:26.016Z,4.18
2023-04-05T18:51:53.316Z,5.20
2023-04-05T18:54:20.343Z,4.38
2023-04-05T18:56:47.425Z,4.15
2023-04-05T18:59:14.581Z,4.28
2023-04-05T19:01:41.848Z,5.53
2023-04-05T19:04:08.959Z,4.65
2023-04-05T19:06:37.222Z,4.28
2023-04-05T19:09:06.369Z,4.82
2023-04-05T19:11:33.782Z,4.60
2023-04-05T19:14:03.680Z,4.15
2023-04-05T19:16:31.174Z,3.85
2023-04-05T19:19:01.104Z,4.20
2023-04-05T19:21:28.509Z,4.72
2023-04-05T19:23:58.453Z,5.55
2023-04-05T19:26:26.203Z,5.10
2023-04-05T19:28:53.481Z,5.55
2023-04-05T19:31:20.621Z,4.40
2023-04-05T19:33:47.794Z,4.68
2023-04-05T19:36:15.139Z,5.20
2023-04-05T19:38:42.243Z,4.07
2023-04-05T19:41:09.297Z,5.15
2023-04-05T19:43:36.966Z,4.78
2023-04-05T19:46:10.496Z,3.63
2023-04-05T19:48:39.926Z,4.88
2023-04-05T19:51:14.916Z,4.68
2023-04-05T19:53:42.945Z,5.43
2023-04-05T19:56:21.791Z,6.22
2023-04-05T19:59:01.264Z,5.05
2023-04-05T20:01:39.356Z,4.97
2023-04-05T20:04:19.472Z,3.92
2023-04-05T20:06:57.586Z,3.95
2023-04-05T20:09:30.362Z,4.38
2023-04-05T20:12:00.486Z,4.75
2023-04-05T20:14:42.445Z,3.22
2023-04-05T20:17:12.620Z,4.78
2023-04-05T20:19:56.959Z,4.22
2023-04-05T20:22:27.280Z,4.95
2023-04-05T20:24:54.561Z,5.82
2023-04-05T20:27:22.133Z,4.47
2023-04-05T20:29:51.687Z,4.80
2023-04-05T20:32:19.088Z,4.63
2023-04-05T20:34:46.197Z,4.63
2023-04-05T20:37:13.980Z,4.00
2023-04-05T20:39:43.286Z,4.35
2023-04-05T20:42:11.591Z,4.63
2023-04-05T20:44:38.633Z,5.07
2023-04-05T20:47:07.001Z,5.93
2023-04-05T20:49:34.466Z,4.30
2023-04-05T20:52:07.608Z,3.75
2023-04-05T20:54:36.599Z,5.38
2023-04-05T20:57:04.908Z,4.53
2023-04-05T20:59:32.152Z,4.53
2023-04-05T21:02:00.647Z,4.05
2023-04-05T21:04:29.953Z,4.55
2023-04-05T21:06:57.503Z,4.93
2023-04-05T21:09:25.700Z,4.68
2023-04-05T21:11:53.751Z,4.05
2023-04-05T21:14:21.543Z,4.32
2023-04-05T21:16:50.960Z,4.18
2023-04-05T21:19:20.251Z,4.60
2023-04-05T21:21:47.667Z,4.53
2023-04-05T21:24:14.792Z,4.90
2023-04-05T21:26:44.729Z,4.97
2023-04-05T21:29:11.945Z,4.53
2023-04-05T21:31:41.965Z,4.03
2023-04-05T21:34:10.503Z,4.18
2023-04-05T21:36:39.960Z,4.35
2023-04-05T21:39:09.201Z,6.55
2023-04-05T21:41:36.326Z,5.45
2023-04-05T21:44:03.353Z,6.15
2023-04-05T21:46:31.543Z,5.55
2023-04-05T21:49:01.642Z,4.80
2023-04-05T21:51:28.665Z,4.70
2023-04-05T21:53:55.785Z,5.20
2023-04-05T21:56:23.193Z,5.50
2023-04-05T21:58:50.465Z,4.80
2023-04-05T22:01:17.768Z,5.38
2023-04-05T22:03:44.864Z,6.32
2023-04-05T22:06:12.366Z,7.00
2023-04-05T22:08:43.684Z,5.30
2023-04-05T22:11:10.711Z,6.82
2023-04-05T22:13:39.034Z,4.50
2023-04-05T22:16:06.491Z,5.00
2023-04-05T22:18:33.689Z,5.10
2023-04-05T22:21:00.758Z,5.05
2023-04-05T22:23:27.715Z,5.07
2023-04-05T22:25:54.793Z,6.22
2023-04-05T22:28:21.874Z,5.45
2023-04-05T22:30:49.333Z,4.93
2023-04-05T22:33:16.344Z,5.32
2023-04-05T22:35:43.761Z,5.88
2023-04-05T22:38:10.956Z,5.20
2023-04-05T22:40:38.598Z,6.15
2023-04-05T22:43:06.108Z,4.88
2023-04-05T22:45:35.075Z,4.88
2023-04-05T22:48:02.155Z,5.35
2023-04-05T22:50:29.211Z,5.45
2023-04-05T22:52:56.301Z,6.20
2023-04-05T22:55:23.592Z,5.57
2023-04-05T22:57:51.388Z,5.28
2023-04-05T23:00:18.796Z,6.07
2023-04-05T23:02:45.845Z,6.03
2023-04-05T23:05:13.143Z,5.82
2023-04-05T23:07:40.215Z,6.95
2023-04-05T23:10:07.588Z,4.30
2023-04-05T23:12:34.546Z,4.90
2023-04-05T23:15:01.554Z,5.53
2023-04-05T23:17:28.618Z,4.45
2023-04-05T23:19:56.183Z,4.38
2023-04-05T23:22:23.323Z,5.63
2023-04-05T23:24:52.861Z,5.05
2023-04-05T23:27:20.131Z,4.18
2023-04-05T23:29:47.356Z,4.35
2023-04-05T23:32:14.285Z,4.60
2023-04-05T23:34:41.488Z,4.22
2023-04-05T23:37:09.564Z,4.20
2023-04-05T23:39:36.940Z,3.65
2023-04-05T23:42:04.986Z,4.90
2023-04-05T23:44:32.041Z,4.47
2023-04-05T23:46:59.176Z,4.53
2023-04-05T23:49:29.106Z,4.75
2023-04-05T23:51:56.336Z,5.43
2023-04-05T23:54:23.357Z,4.75
2023-04-05T23:56:51.197Z,3.90
2023-04-05T23:59:18.508Z,6.82
